Time;durP1;ratioP1;P1;durP2;ratioP2;P2;SDS_P1;SDS_P2;PMS_P1;PMS_P2;Temp;Humidity;BMP_temperature;BMP_pressure;BME280_temperature;BME280_humidity;BME280_pressure;Samples;Min_cycle;Max_cycle;Signal;HPM_P1;HPM_P2
2022/11/26 00:01:46;;;;;;;;;;;;;;;9.56;52.70;100299.88;4476268;32;34172;-65
2022/11/26 00:04:14;;;;;;;;;;;;;;;9.68;51.94;100298.25;4472443;32;34351;-64
2022/11/26 00:06:41;;;;;;;;;;;;;;;9.65;51.75;100300.28;4477218;32;33668;-65
2022/11/26 00:09:16;;;;;;;;;;;;;;;9.52;52.82;100309.03;4468477;32;34040;-68
2022/11/26 00:11:43;;;;;;;;;;;;;;;9.38;53.20;100311.72;4467152;32;35376;-69
2022/11/26 00:14:12;;;;;;;;;;;;;;;9.61;52.39;100318.31;4467042;32;34180;-66
2022/11/26 00:16:39;;;;;;;;;;;;;;;9.36;53.36;100324.28;4467417;32;32091;-70
2022/11/26 00:19:07;;;;;;;;;;;;;;;9.12;54.15;100320.41;4467033;32;34991;-69
2022/11/26 00:21:35;;;;;;;;;;;;;;;9.61;52.22;100322.81;4462513;32;32830;-68
2022/11/26 00:24:02;;;;;;;;;;;;;;;9.66;51.68;100318.91;4450658;32;33090;-67
2022/11/26 00:26:30;;;;;;;;;;;;;;;9.61;51.50;100314.78;4469460;32;34451;-66
2022/11/26 00:28:59;;;;;;;;;;;;;;;9.47;52.70;100316.50;4457341;32;34162;-66
2022/11/26 00:31:26;;;;;;;;;;;;;;;9.41;52.95;100314.19;4475215;32;35025;-67
2022/11/26 00:33:54;;;;;;;;;;;;;;;9.61;52.23;100317.47;4471893;32;33528;-67
2022/11/26 00:36:25;;;;;;;;;;;;;;;9.54;52.05;100312.50;4468939;32;33426;-66
2022/11/26 00:38:56;;;;;;;;;;;;;;;9.66;51.13;100321.56;4461970;32;34952;-66
2022/11/26 00:41:24;;;;;;;;;;;;;;;9.50;51.51;100313.62;4471460;32;35219;-67
2022/11/26 00:43:51;;;;;;;;;;;;;;;9.26;52.67;100326.66;4460063;32;35219;-65
2022/11/26 00:46:19;;;;;;;;;;;;;;;9.43;52.39;100319.44;4477600;32;34831;-66
2022/11/26 00:48:47;;;;;;;;;;;;;;;9.59;52.07;100320.22;4472536;32;32565;-69
2022/11/26 00:51:19;;;;;;;;;;;;;;;9.65;51.81;100327.00;4464477;32;35145;-67
2022/11/26 00:53:46;;;;;;;;;;;;;;;9.52;52.22;100318.87;4470021;32;34771;-67
2022/11/26 00:56:16;;;;;;;;;;;;;;;9.60;52.16;100326.41;4463749;32;33173;-66
2022/11/26 00:58:44;;;;;;;;;;;;;;;9.71;51.86;100329.28;4459684;32;34264;-66
2022/11/26 01:01:12;;;;;;;;;;;;;;;9.75;51.61;100329.00;4472156;32;35185;-66
2022/11/26 01:03:41;;;;;;;;;;;;;;;9.79;51.04;100333.22;4475361;32;34056;-67
2022/11/26 01:06:17;;;;;;;;;;;;;;;9.71;51.26;100329.28;4475649;32;34525;-67
2022/11/26 01:08:45;;;;;;;;;;;;;;;9.58;51.35;100334.53;4472940;32;34151;-66
2022/11/26 01:11:14;;;;;;;;;;;;;;;9.59;51.63;100328.22;4479050;32;35499;-67
2022/11/26 01:13:42;;;;;;;;;;;;;;;9.73;51.17;100330.06;4468762;32;33686;-66
2022/11/26 01:16:15;;;;;;;;;;;;;;;9.73;50.95;100336.28;4474363;32;34066;-69
2022/11/26 01:18:42;;;;;;;;;;;;;;;9.64;51.29;100342.19;4474348;32;33646;-66
2022/11/26 01:21:10;;;;;;;;;;;;;;;9.62;51.63;100327.19;4473969;32;32993;-66
2022/11/26 01:23:37;;;;;;;;;;;;;;;9.64;51.47;100335.97;4450315;32;861658;-65
2022/11/26 01:26:05;;;;;;;;;;;;;;;9.63;51.48;100331.56;4467708;32;34161;-66
2022/11/26 01:28:33;;;;;;;;;;;;;;;9.68;51.47;100329.47;4472538;32;34062;-67
2022/11/26 01:31:00;;;;;;;;;;;;;;;9.60;51.69;100332.63;4454726;32;33840;-67
2022/11/26 01:33:27;;;;;;;;;;;;;;;9.67;51.61;100336.66;4448554;32;34486;-67
2022/11/26 01:35:55;;;;;;;;;;;;;;;9.71;51.62;100334.63;4454099;32;33758;-69
2022/11/26 01:38:23;;;;;;;;;;;;;;;9.49;52.64;100335.94;4452376;32;34214;-67
2022/11/26 01:40:57;;;;;;;;;;;;;;;9.68;52.16;100330.34;4452243;32;35508;-66
2022/11/26 01:43:54;;;;;;;;;;;;;;;9.80;51.88;100329.59;4448482;32;36186;-68
2022/11/26 01:46:25;;;;;;;;;;;;;;;9.76;51.86;100332.56;4444963;32;33487;-71
2022/11/26 01:48:52;;;;;;;;;;;;;;;9.87;51.61;100335.41;4448806;32;33862;-66
2022/11/26 01:51:22;;;;;;;;;;;;;;;9.88;51.49;100336.25;4448725;32;34126;-67
2022/11/26 01:53:51;;;;;;;;;;;;;;;9.79;51.93;100327.88;4451757;32;35039;-67
2022/11/26 01:56:21;;;;;;;;;;;;;;;9.90;51.91;100327.19;4450097;32;33722;-68
2022/11/26 01:58:50;;;;;;;;;;;;;;;9.73;52.41;100330.06;4449832;32;33880;-68
2022/11/26 02:01:17;;;;;;;;;;;;;;;9.70;52.76;100328.44;4444135;32;34175;-66
2022/11/26 02:04:04;;;;;;;;;;;;;;;9.86;52.09;100328.34;4450460;32;34882;-68
2022/11/26 02:06:32;;;;;;;;;;;;;;;9.86;51.67;100327.50;4448311;32;33121;-69
2022/11/26 02:09:00;;;;;;;;;;;;;;;9.71;52.22;100331.97;4450059;32;34093;-66
2022/11/26 02:11:28;;;;;;;;;;;;;;;9.87;51.94;100335.41;4447766;32;33617;-66
2022/11/26 02:13:57;;;;;;;;;;;;;;;9.82;52.30;100332.16;4445137;32;34072;-67
2022/11/26 02:16:27;;;;;;;;;;;;;;;9.92;51.92;100336.00;4451711;32;35432;-67
2022/11/26 02:19:03;;;;;;;;;;;;;;;9.92;52.08;100336.00;4451415;32;33350;-66
2022/11/26 02:21:30;;;;;;;;;;;;;;;9.98;51.70;100335.59;4440908;32;34439;-70
2022/11/26 02:24:19;;;;;;;;;;;;;;;9.78;52.22;100336.81;4457179;32;32403;-66
2022/11/26 02:26:47;;;;;;;;;;;;;;;10.00;51.56;100339.03;4449720;32;33364;-67
2022/11/26 02:29:16;;;;;;;;;;;;;;;9.97;51.73;100341.03;4452121;32;34273;-66
2022/11/26 02:31:48;;;;;;;;;;;;;;;9.92;52.00;100336.00;4442799;32;32778;-67
2022/11/26 02:34:24;;;;;;;;;;;;;;;9.93;51.71;100345.72;4445805;32;32515;-67
2022/11/26 02:36:59;;;;;;;;;;;;;;;9.77;52.29;100342.28;4438132;32;33402;-67
2022/11/26 02:39:27;;;;;;;;;;;;;;;9.85;51.46;100345.31;4442659;32;34292;-67
2022/11/26 02:41:55;;;;;;;;;;;;;;;9.64;52.23;100336.84;4447781;32;33499;-66
2022/11/26 02:44:23;;;;;;;;;;;;;;;9.64;52.38;100346.66;4443299;32;33570;-66
2022/11/26 02:46:53;;;;;;;;;;;;;;;9.84;51.77;100343.62;4442853;32;33121;-67
2022/11/26 02:49:21;;;;;;;;;;;;;;;9.86;51.28;100351.56;4443952;32;33682;-66
2022/11/26 02:51:49;;;;;;;;;;;;;;;9.68;51.88;100350.88;4447642;32;33909;-66
2022/11/26 02:54:16;;;;;;;;;;;;;;;9.70;52.25;100365.87;4434534;32;32776;-66
2022/11/26 02:56:43;;;;;;;;;;;;;;;9.68;52.26;100370.44;4433545;32;33377;-69
2022/11/26 02:59:11;;;;;;;;;;;;;;;9.69;52.26;100366.78;4446103;32;35384;-67
2022/11/26 03:01:41;;;;;;;;;;;;;;;9.70;52.10;100371.22;4441817;32;34184;-66
2022/11/26 03:04:09;;;;;;;;;;;;;;;9.76;51.89;100373.50;4440619;32;34108;-66
2022/11/26 03:06:36;;;;;;;;;;;;;;;9.82;51.91;100374.06;4446769;32;32897;-66
2022/11/26 03:09:04;;;;;;;;;;;;;;;9.82;51.81;100372.25;4452203;32;34187;-67
2022/11/26 03:11:31;;;;;;;;;;;;;;;9.82;51.98;100369.56;4445471;32;32957;-66
2022/11/26 03:13:58;;;;;;;;;;;;;;;9.88;51.84;100371.88;4436767;32;35328;-66
2022/11/26 03:16:26;;;;;;;;;;;;;;;9.95;51.71;100373.22;4449371;32;33526;-68
2022/11/26 03:18:53;;;;;;;;;;;;;;;9.91;51.77;100371.69;4449177;32;34121;-66
2022/11/26 03:21:20;;;;;;;;;;;;;;;9.93;51.60;100376.94;4445712;32;34788;-68
2022/11/26 03:23:48;;;;;;;;;;;;;;;9.87;52.11;100380.84;4442934;32;34231;-68
2022/11/26 03:26:15;;;;;;;;;;;;;;;9.91;51.77;100379.72;4445886;32;33972;-66
2022/11/26 03:28:42;;;;;;;;;;;;;;;9.78;52.78;100384.94;4443794;32;33590;-67
2022/11/26 03:31:10;;;;;;;;;;;;;;;9.76;53.00;100386.03;4463171;32;34040;-67
2022/11/26 03:33:37;;;;;;;;;;;;;;;9.88;52.84;100384.38;4473414;32;34431;-67
2022/11/26 03:36:04;;;;;;;;;;;;;;;9.65;53.29;100392.00;4465744;32;33217;-65
2022/11/26 03:38:32;;;;;;;;;;;;;;;9.88;52.68;100393.25;4465640;32;34098;-65
2022/11/26 03:41:00;;;;;;;;;;;;;;;9.84;52.58;100397.09;4462572;32;35430;-65
2022/11/26 03:43:27;;;;;;;;;;;;;;;9.92;52.36;100396.59;4469225;32;35018;-65
2022/11/26 03:45:54;;;;;;;;;;;;;;;9.72;52.93;100400.50;4464484;32;34520;-65
2022/11/26 03:48:22;;;;;;;;;;;;;;;9.60;53.64;100401.25;4467987;32;34290;-65
2022/11/26 03:50:49;;;;;;;;;;;;;;;9.79;53.45;100400.06;4470813;32;34238;-66
2022/11/26 03:53:17;;;;;;;;;;;;;;;9.96;52.75;100400.84;4470062;32;32430;-66
2022/11/26 03:55:44;;;;;;;;;;;;;;;9.97;52.63;100407.88;4480207;32;34443;-67
2022/11/26 03:58:11;;;;;;;;;;;;;;;10.00;52.37;100403.22;4473644;32;32868;-66
2022/11/26 04:00:38;;;;;;;;;;;;;;;9.92;52.57;100413.53;4474791;32;35091;-67
2022/11/26 04:03:06;;;;;;;;;;;;;;;9.76;53.37;100405.59;4464736;32;35107;-68
2022/11/26 04:05:33;;;;;;;;;;;;;;;9.74;53.57;100406.63;4463636;32;32106;-66
2022/11/26 04:08:00;;;;;;;;;;;;;;;9.92;53.27;100409.97;4464276;32;33495;-66
2022/11/26 04:10:28;;;;;;;;;;;;;;;9.96;53.38;100415.06;4474502;32;33826;-66
2022/11/26 04:12:55;;;;;;;;;;;;;;;9.68;54.03;100415.88;4462638;32;34939;-66
2022/11/26 04:15:22;;;;;;;;;;;;;;;9.82;53.94;100416.84;4466109;32;33124;-66
2022/11/26 04:17:50;;;;;;;;;;;;;;;9.80;54.28;100416.94;4477389;32;33011;-66
2022/11/26 04:20:17;;;;;;;;;;;;;;;9.71;54.39;100425.53;4466226;32;34490;-66
2022/11/26 04:22:44;;;;;;;;;;;;;;;9.68;54.55;100423.03;4463705;32;34076;-67
2022/11/26 04:25:12;;;;;;;;;;;;;;;9.94;53.28;100411.59;4463689;32;33265;-66
2022/11/26 04:27:39;;;;;;;;;;;;;;;10.03;52.36;100416.37;4464239;32;35827;-66
2022/11/26 04:30:06;;;;;;;;;;;;;;;9.96;53.02;100417.72;4466252;32;34291;-66
2022/11/26 04:32:35;;;;;;;;;;;;;;;9.86;53.55;100421.94;4468843;32;34244;-69
2022/11/26 04:35:03;;;;;;;;;;;;;;;9.87;53.54;100420.09;4472582;32;32104;-66
2022/11/26 04:37:30;;;;;;;;;;;;;;;9.97;53.12;100432.81;4465606;32;34931;-69
2022/11/26 04:39:57;;;;;;;;;;;;;;;9.90;53.68;100431.47;4463163;32;34139;-66
2022/11/26 04:42:25;;;;;;;;;;;;;;;9.97;53.75;100443.50;4465622;32;34306;-67
2022/11/26 04:44:52;;;;;;;;;;;;;;;10.01;53.60;100436.16;4469433;32;34213;-66
2022/11/26 04:47:19;;;;;;;;;;;;;;;9.93;53.71;100441.97;4470286;32;34267;-66
2022/11/26 04:49:47;;;;;;;;;;;;;;;9.88;54.12;100456.59;4470656;32;34098;-66
2022/11/26 04:52:14;;;;;;;;;;;;;;;9.78;54.49;100457.13;4476547;32;35087;-66
2022/11/26 04:54:41;;;;;;;;;;;;;;;9.91;54.10;100456.41;4474475;32;33277;-66
2022/11/26 04:57:08;;;;;;;;;;;;;;;9.78;54.42;100451.78;4467695;32;34646;-66
2022/11/26 04:59:36;;;;;;;;;;;;;;;9.80;54.50;100457.06;4471988;32;34488;-68
2022/11/26 05:02:03;;;;;;;;;;;;;;;9.91;54.34;100461.75;4469497;32;34072;-65
2022/11/26 05:04:30;;;;;;;;;;;;;;;9.89;54.31;100466.34;4466042;32;32143;-66
2022/11/26 05:06:58;;;;;;;;;;;;;;;9.91;54.46;100469.75;4469782;32;33958;-66
2022/11/26 05:09:25;;;;;;;;;;;;;;;9.79;54.65;100472.25;4476151;32;35419;-65
2022/11/26 05:11:52;;;;;;;;;;;;;;;9.83;54.61;100478.25;4465761;32;32380;-65
2022/11/26 05:14:19;;;;;;;;;;;;;;;9.96;53.74;100479.25;4469596;32;33401;-66
2022/11/26 05:16:47;;;;;;;;;;;;;;;9.88;54.20;100483.31;4472493;32;33956;-66
2022/11/26 05:19:14;;;;;;;;;;;;;;;9.85;53.73;100484.34;4467331;32;35121;-67
2022/11/26 05:21:42;;;;;;;;;;;;;;;9.35;55.57;100477.53;4473486;32;34127;-65
2022/11/26 05:24:10;;;;;;;;;;;;;;;9.69;54.66;100484.41;4471947;32;33952;-66
2022/11/26 05:26:37;;;;;;;;;;;;;;;9.83;53.47;100478.25;4476477;32;34622;-66
2022/11/26 05:29:04;;;;;;;;;;;;;;;9.55;55.01;100487.91;4467474;32;34405;-69
2022/11/26 05:31:31;;;;;;;;;;;;;;;9.60;54.99;100489.44;4467409;32;35231;-65
2022/11/26 05:33:59;;;;;;;;;;;;;;;9.49;55.46;100492.75;4466728;32;33232;-66
2022/11/26 05:36:26;;;;;;;;;;;;;;;9.24;56.61;100488.81;4469391;32;34996;-68
2022/11/26 05:38:53;;;;;;;;;;;;;;;9.42;55.96;100491.37;4473062;32;34280;-64
2022/11/26 05:41:21;;;;;;;;;;;;;;;9.67;54.82;100501.50;4474212;32;33211;-67
2022/11/26 05:43:48;;;;;;;;;;;;;;;9.79;54.75;100501.66;4467189;32;37329;-65
2022/11/26 05:46:15;;;;;;;;;;;;;;;9.74;54.99;100505.53;4471918;32;33604;-65
2022/11/26 05:48:43;;;;;;;;;;;;;;;9.74;55.42;100505.53;4455650;32;35192;-66
2022/11/26 05:51:10;;;;;;;;;;;;;;;9.63;55.79;100511.53;4473526;32;35548;-66
2022/11/26 05:53:37;;;;;;;;;;;;;;;9.83;55.15;100513.03;4478953;32;33296;-66
2022/11/26 05:56:04;;;;;;;;;;;;;;;10.00;54.16;100512.84;4470077;32;35238;-66
2022/11/26 05:58:32;;;;;;;;;;;;;;;9.75;55.46;100517.94;4465972;32;33047;-67
2022/11/26 06:01:00;;;;;;;;;;;;;;;9.59;55.71;100517.12;4464094;32;33970;-68
2022/11/26 06:03:27;;;;;;;;;;;;;;;9.64;55.76;100518.59;4465003;32;34791;-65
2022/11/26 06:05:55;;;;;;;;;;;;;;;9.99;54.20;100527.19;4465579;32;33243;-67
2022/11/26 06:08:22;;;;;;;;;;;;;;;9.78;55.15;100525.78;4463253;32;35074;-68
2022/11/26 06:10:49;;;;;;;;;;;;;;;9.89;54.79;100531.38;4466295;32;33960;-65
2022/11/26 06:13:16;;;;;;;;;;;;;;;9.84;54.84;100532.59;4476809;32;32017;-65
2022/11/26 06:15:44;;;;;;;;;;;;;;;9.72;55.24;100529.66;4457184;32;34691;-65
2022/11/26 06:18:11;;;;;;;;;;;;;;;9.85;55.30;100534.31;4468912;32;33344;-66
2022/11/26 06:20:38;;;;;;;;;;;;;;;9.75;55.54;100542.00;4471784;32;33904;-66
2022/11/26 06:23:06;;;;;;;;;;;;;;;10.01;54.34;100544.00;4470903;32;33688;-66
2022/11/26 06:25:33;;;;;;;;;;;;;;;9.92;54.75;100536.53;4471781;32;34155;-67
2022/11/26 06:28:00;;;;;;;;;;;;;;;9.98;54.38;100537.97;4466037;32;33626;-65
2022/11/26 06:30:27;;;;;;;;;;;;;;;9.48;56.30;100547.16;4466896;32;33146;-68
2022/11/26 06:32:55;;;;;;;;;;;;;;;9.54;56.20;100542.31;4465380;32;33186;-68
2022/11/26 06:35:22;;;;;;;;;;;;;;;9.62;56.02;100541.84;4466815;32;32700;-66
2022/11/26 06:37:49;;;;;;;;;;;;;;;9.53;56.26;100548.63;4468799;32;34213;-67
2022/11/26 06:40:18;;;;;;;;;;;;;;;9.91;55.03;100550.00;4465524;32;34166;-66
2022/11/26 06:42:51;;;;;;;;;;;;;;;9.88;55.30;100552.84;4475955;32;33163;-66
2022/11/26 06:45:19;;;;;;;;;;;;;;;9.81;55.56;100547.00;4468770;32;33879;-66
2022/11/26 06:47:47;;;;;;;;;;;;;;;9.92;55.19;100552.59;4474528;32;34062;-66
2022/11/26 06:50:15;;;;;;;;;;;;;;;10.11;54.11;100554.16;4468786;32;34138;-67
2022/11/26 06:52:42;;;;;;;;;;;;;;;9.58;56.35;100553.69;4473158;32;34764;-66
2022/11/26 06:55:10;;;;;;;;;;;;;;;9.63;56.16;100556.09;4471688;32;34208;-65
2022/11/26 06:57:37;;;;;;;;;;;;;;;9.66;56.14;100566.59;4472349;32;33965;-66
2022/11/26 07:00:06;;;;;;;;;;;;;;;9.61;56.26;100574.91;4458401;32;32716;-65
2022/11/26 07:02:33;;;;;;;;;;;;;;;10.10;54.41;100566.66;4468515;32;33125;-64
2022/11/26 07:05:00;;;;;;;;;;;;;;;9.92;54.92;100581.12;4473528;32;33872;-65
2022/11/26 07:07:28;;;;;;;;;;;;;;;9.92;55.38;100576.66;4475855;32;34132;-69
2022/11/26 07:09:55;;;;;;;;;;;;;;;10.09;54.51;100581.00;4475901;32;35168;-66
2022/11/26 07:12:22;;;;;;;;;;;;;;;9.94;55.23;100577.41;4476604;32;33049;-69
2022/11/26 07:14:50;;;;;;;;;;;;;;;10.29;54.06;100587.84;4469517;32;34075;-65
2022/11/26 07:17:17;;;;;;;;;;;;;;;9.97;55.43;100581.72;4466969;32;33442;-67
2022/11/26 07:19:44;;;;;;;;;;;;;;;10.13;54.99;100576.31;4474307;32;35345;-65
2022/11/26 07:22:12;;;;;;;;;;;;;;;10.52;53.37;100574.91;4467190;32;34102;-66
2022/11/26 07:24:39;;;;;;;;;;;;;;;10.09;55.19;100582.81;4477893;32;35403;-66
2022/11/26 07:27:07;;;;;;;;;;;;;;;10.48;54.42;100583.09;4472705;32;33925;-66
2022/11/26 07:29:34;;;;;;;;;;;;;;;10.49;54.39;100589.31;4471763;32;32796;-66
2022/11/26 07:32:02;;;;;;;;;;;;;;;10.75;53.29;100587.72;4474860;32;34471;-66
2022/11/26 07:34:29;;;;;;;;;;;;;;;10.90;52.81;100594.78;4475681;32;34969;-66
2022/11/26 07:36:57;;;;;;;;;;;;;;;10.79;53.39;100591.94;4471004;32;34331;-66
2022/11/26 07:39:24;;;;;;;;;;;;;;;11.11;52.22;100587.25;4468716;32;34633;-66
2022/11/26 07:41:51;;;;;;;;;;;;;;;11.27;51.18;100592.47;4471478;32;32005;-69
2022/11/26 07:44:19;;;;;;;;;;;;;;;10.85;53.04;100599.59;4468576;32;32816;-66
2022/11/26 07:46:46;;;;;;;;;;;;;;;11.22;51.61;100589.22;4477024;32;34455;-67
2022/11/26 07:49:13;;;;;;;;;;;;;;;11.14;52.20;100599.59;4470799;32;32361;-66
2022/11/26 07:51:41;;;;;;;;;;;;;;;11.15;52.31;100599.47;4467598;32;33218;-66
2022/11/26 07:54:08;;;;;;;;;;;;;;;11.45;50.66;100603.81;4471806;32;33174;-66
2022/11/26 07:56:36;;;;;;;;;;;;;;;11.41;50.94;100595.12;4472437;32;35225;-66
2022/11/26 07:59:03;;;;;;;;;;;;;;;11.03;52.26;100594.88;4473363;32;35216;-67
2022/11/26 08:01:31;;;;;;;;;;;;;;;11.25;52.55;100591.72;4471935;32;31474;-70
2022/11/26 08:03:59;;;;;;;;;;;;;;;11.64;51.87;100587.41;4470441;32;33738;-68
2022/11/26 08:06:27;;;;;;;;;;;;;;;11.66;52.36;100602.44;4471672;32;33375;-66
2022/11/26 08:08:54;;;;;;;;;;;;;;;11.77;51.86;100608.91;4471180;32;35075;-67
2022/11/26 08:11:23;;;;;;;;;;;;;;;12.01;50.94;100609.13;4472840;32;34056;-69
2022/11/26 08:13:53;;;;;;;;;;;;;;;11.99;50.38;100611.91;4467873;32;33078;-66
2022/11/26 08:16:21;;;;;;;;;;;;;;;11.50;52.18;100622.31;4468800;32;34366;-66
2022/11/26 08:18:52;;;;;;;;;;;;;;;11.87;50.87;100628.81;4470816;32;33977;-67
2022/11/26 08:21:19;;;;;;;;;;;;;;;11.97;50.51;100627.25;4475496;32;32861;-66
2022/11/26 08:23:47;;;;;;;;;;;;;;;11.46;52.20;100637.72;4471402;32;35061;-67
2022/11/26 08:26:14;;;;;;;;;;;;;;;11.78;51.27;100635.62;4480001;32;33855;-70
2022/11/26 08:28:59;;;;;;;;;;;;;;;11.47;52.12;100644.81;4466822;32;32769;-66
2022/11/26 08:31:26;;;;;;;;;;;;;;;12.05;50.59;100642.84;4471557;32;34105;-66
2022/11/26 08:33:55;;;;;;;;;;;;;;;11.58;51.63;100634.22;4479766;32;34597;-70
2022/11/26 08:36:22;;;;;;;;;;;;;;;11.80;50.97;100635.53;4469846;32;35359;-69
2022/11/26 08:38:49;;;;;;;;;;;;;;;12.22;49.98;100641.72;4459097;32;35573;-66
2022/11/26 08:41:17;;;;;;;;;;;;;;;11.93;50.20;100644.50;4476270;32;32059;-64
2022/11/26 08:43:44;;;;;;;;;;;;;;;12.12;50.25;100644.16;4468335;32;33965;-63
2022/11/26 08:46:31;;;;;;;;;;;;;;;12.02;50.16;100653.78;4475178;32;32977;-65
2022/11/26 08:48:59;;;;;;;;;;;;;;;11.99;50.15;100649.47;4474269;32;32708;-63
2022/11/26 08:51:26;;;;;;;;;;;;;;;12.27;49.38;100647.63;4471502;32;33302;-63
2022/11/26 08:53:53;;;;;;;;;;;;;;;12.25;49.15;100653.09;4470577;32;33743;-64
2022/11/26 08:56:21;;;;;;;;;;;;;;;11.85;50.70;100646.84;4476159;32;33199;-64
2022/11/26 08:58:50;;;;;;;;;;;;;;;11.85;50.36;100647.72;4467870;32;35086;-64
2022/11/26 09:01:27;;;;;;;;;;;;;;;12.03;50.01;100644.75;4472477;32;33528;-63
2022/11/26 09:03:56;;;;;;;;;;;;;;;11.50;51.48;100649.97;4469568;32;34228;-64
2022/11/26 09:06:23;;;;;;;;;;;;;;;12.01;49.67;100650.25;4469453;32;34379;-64
2022/11/26 09:11:38;;;;;;;;;;;;;;;12.08;49.98;100648.88;4477105;32;32119;-67
2022/11/26 09:14:05;;;;;;;;;;;;;;;12.27;49.80;100651.19;4479579;32;32884;-64
2022/11/26 09:16:33;;;;;;;;;;;;;;;12.03;49.99;100659.03;4474203;32;33136;-63
2022/11/26 09:19:01;;;;;;;;;;;;;;;11.97;51.01;100661.25;4473031;32;34357;-63
2022/11/26 09:21:28;;;;;;;;;;;;;;;12.02;51.13;100653.78;4467588;32;33543;-63
2022/11/26 09:23:55;;;;;;;;;;;;;;;12.15;50.84;100661.88;4471404;32;33790;-65
2022/11/26 09:26:24;;;;;;;;;;;;;;;12.32;50.91;100657.06;4469213;32;34100;-66
2022/11/26 09:28:51;;;;;;;;;;;;;;;12.25;51.29;100663.81;4469176;32;34767;-64
2022/11/26 09:31:18;;;;;;;;;;;;;;;11.93;51.94;100667.78;4474645;32;32208;-66
2022/11/26 09:33:46;;;;;;;;;;;;;;;12.02;51.45;100668.06;4469999;32;33936;-64
2022/11/26 09:36:14;;;;;;;;;;;;;;;11.60;52.83;100671.69;4479914;32;32944;-63
2022/11/26 09:38:41;;;;;;;;;;;;;;;12.57;50.29;100663.47;4470973;32;32832;-65
2022/11/26 09:41:11;;;;;;;;;;;;;;;12.33;50.23;100664.19;4474988;32;32890;-65
2022/11/26 09:43:58;;;;;;;;;;;;;;;12.56;50.34;100669.81;4472561;32;34205;-66
2022/11/26 09:46:33;;;;;;;;;;;;;;;12.50;51.08;100678.28;4471362;32;32980;-64
2022/11/26 09:49:21;;;;;;;;;;;;;;;12.44;51.33;100671.50;4471532;32;34288;-64
2022/11/26 09:51:49;;;;;;;;;;;;;;;12.35;51.45;100666.75;4466449;32;32220;-63
2022/11/26 09:54:18;;;;;;;;;;;;;;;12.79;49.91;100666.41;4473807;32;34829;-67
2022/11/26 09:56:46;;;;;;;;;;;;;;;12.81;49.88;100669.00;4477049;32;34253;-64
2022/11/26 09:59:14;;;;;;;;;;;;;;;12.73;50.13;100669.50;4472987;32;34419;-63
2022/11/26 10:01:41;;;;;;;;;;;;;;;12.30;50.71;100663.53;4459995;32;33809;-65
2022/11/26 10:04:12;;;;;;;;;;;;;;;12.93;49.23;100664.56;4466634;32;35083;-63
2022/11/26 10:06:42;;;;;;;;;;;;;;;13.02;49.12;100654.03;4453920;32;34826;-63
2022/11/26 10:09:12;;;;;;;;;;;;;;;12.84;49.56;100660.72;4466176;32;34653;-63
2022/11/26 10:11:42;;;;;;;;;;;;;;;12.97;49.59;100669.66;4470862;32;33652;-63
2022/11/26 10:14:22;;;;;;;;;;;;;;;13.13;49.84;100674.81;4472176;32;34328;-64
2022/11/26 10:17:08;;;;;;;;;;;;;;;12.91;50.29;100669.22;4470792;32;35248;-66
2022/11/26 10:19:54;;;;;;;;;;;;;;;13.07;49.44;100671.69;4475053;32;33982;-64
2022/11/26 10:22:22;;;;;;;;;;;;;;;12.72;50.20;100675.00;4473747;32;34537;-63
2022/11/26 10:24:50;;;;;;;;;;;;;;;12.75;51.12;100678.34;4466362;32;34314;-66
2022/11/26 10:27:18;;;;;;;;;;;;;;;12.87;51.04;100675.75;4474092;32;35228;-67
2022/11/26 10:29:47;;;;;;;;;;;;;;;12.67;52.38;100679.81;4477199;32;32783;-63
2022/11/26 10:32:15;;;;;;;;;;;;;;;12.79;52.04;100681.66;4467912;32;33567;-63
2022/11/26 10:34:50;;;;;;;;;;;;;;;12.70;52.08;100679.59;4468561;32;35006;-63
2022/11/26 10:37:18;;;;;;;;;;;;;;;13.09;50.67;100672.41;4482256;32;34308;-63
2022/11/26 10:39:45;;;;;;;;;;;;;;;13.16;50.80;100674.59;4459143;32;32948;-63
2022/11/26 10:42:18;;;;;;;;;;;;;;;13.19;51.42;100674.37;4473570;32;34609;-65
2022/11/26 10:44:46;;;;;;;;;;;;;;;13.04;51.72;100670.06;4471189;32;34136;-66
2022/11/26 10:47:23;;;;;;;;;;;;;;;13.34;50.68;100669.75;4471397;32;34225;-62
2022/11/26 10:49:52;;;;;;;;;;;;;;;13.34;50.06;100676.97;4478025;32;34458;-63
2022/11/26 10:52:29;;;;;;;;;;;;;;;13.31;50.54;100671.78;4453764;32;33629;-63
2022/11/26 10:55:06;;;;;;;;;;;;;;;13.14;51.91;100673.81;4464954;32;32772;-64
2022/11/26 10:57:34;;;;;;;;;;;;;;;13.17;51.00;100676.28;4470415;32;34041;-64
2022/11/26 11:00:02;;;;;;;;;;;;;;;13.30;51.02;100673.63;4475672;32;32600;-67
2022/11/26 11:02:31;;;;;;;;;;;;;;;12.96;51.87;100684.03;4468733;32;33275;-64
2022/11/26 11:05:00;;;;;;;;;;;;;;;13.13;51.40;100680.19;4453920;32;32946;-64
2022/11/26 11:07:29;;;;;;;;;;;;;;;13.13;51.54;100676.59;4462349;32;35092;-64
2022/11/26 11:10:01;;;;;;;;;;;;;;;13.52;49.92;100672.94;4455692;32;35571;-64
2022/11/26 11:12:29;;;;;;;;;;;;;;;13.33;50.36;100667.19;4469067;32;33910;-63
2022/11/26 11:15:07;;;;;;;;;;;;;;;13.14;50.85;100670.28;4476510;32;33028;-64
2022/11/26 11:17:35;;;;;;;;;;;;;;;13.02;51.41;100664.78;4458790;32;32911;-64
2022/11/26 11:20:25;;;;;;;;;;;;;;;12.90;51.95;100662.09;4479668;32;35189;-66
2022/11/26 11:23:16;;;;;;;;;;;;;;;13.02;52.12;100662.09;4458614;32;33502;-63
2022/11/26 11:25:56;;;;;;;;;;;;;;;13.19;51.61;100663.63;4464178;32;32752;-63
2022/11/26 11:28:24;;;;;;;;;;;;;;;12.95;52.89;100662.66;4478187;32;34229;-63
2022/11/26 11:30:59;;;;;;;;;;;;;;;12.66;53.28;100660.16;4471139;32;34716;-64
2022/11/26 11:33:27;;;;;;;;;;;;;;;13.18;51.67;100661.03;4456206;32;34376;-66
2022/11/26 11:36:02;;;;;;;;;;;;;;;12.82;52.85;100660.81;4472283;32;33925;-66
2022/11/26 11:38:33;;;;;;;;;;;;;;;12.55;53.51;100658.22;4471095;32;34178;-65
2022/11/26 11:41:01;;;;;;;;;;;;;;;12.19;55.86;100658.88;4462073;32;34164;-65
2022/11/26 11:43:28;;;;;;;;;;;;;;;12.33;55.05;100666.88;4463371;32;32152;-65
2022/11/26 11:46:19;;;;;;;;;;;;;;;12.31;55.30;100670.63;4462031;32;35339;-65
2022/11/26 11:49:07;;;;;;;;;;;;;;;12.49;55.18;100665.84;4470091;32;32858;-66
2022/11/26 11:51:40;;;;;;;;;;;;;;;12.74;54.40;100671.22;4430681;32;34317;-65
2022/11/26 11:54:21;;;;;;;;;;;;;;;12.96;54.22;100669.72;4459587;32;33494;-64
2022/11/26 11:56:54;;;;;;;;;;;;;;;13.00;53.76;100660.47;4473246;32;32919;-67
2022/11/26 11:59:35;;;;;;;;;;;;;;;12.74;54.28;100668.53;4454897;32;34352;-64
2022/11/26 12:02:26;;;;;;;;;;;;;;;13.21;52.84;100661.66;4470057;32;34127;-65
2022/11/26 12:05:05;;;;;;;;;;;;;;;13.07;52.93;100666.31;4465371;32;32781;-64
2022/11/26 12:07:51;;;;;;;;;;;;;;;13.12;53.24;100665.00;4456545;32;33992;-63
2022/11/26 12:10:24;;;;;;;;;;;;;;;13.13;52.79;100657.78;4476901;32;34480;-64
2022/11/26 12:12:52;;;;;;;;;;;;;;;12.80;53.69;100664.56;4469198;32;34567;-64
2022/11/26 12:15:22;;;;;;;;;;;;;;;13.27;51.98;100661.25;4470632;32;34025;-64
2022/11/26 12:17:52;;;;;;;;;;;;;;;12.80;53.18;100665.41;4453816;32;35012;-64
2022/11/26 12:20:30;;;;;;;;;;;;;;;12.87;53.14;100671.22;4465718;32;35405;-64
2022/11/26 12:23:04;;;;;;;;;;;;;;;13.27;52.19;100672.00;4466899;32;33057;-64
2022/11/26 12:25:39;;;;;;;;;;;;;;;13.45;51.84;100674.34;4479562;32;33255;-64
2022/11/26 12:28:21;;;;;;;;;;;;;;;13.28;52.10;100671.03;4466994;32;35258;-64
2022/11/26 12:30:50;;;;;;;;;;;;;;;13.15;52.45;100672.84;4463560;32;32476;-64
2022/11/26 12:33:25;;;;;;;;;;;;;;;12.94;53.07;100674.37;4467605;32;33885;-64
2022/11/26 12:35:53;;;;;;;;;;;;;;;12.74;53.72;100676.59;4468107;32;34450;-67
2022/11/26 12:38:23;;;;;;;;;;;;;;;12.72;53.83;100673.16;4455224;32;35365;-65
2022/11/26 12:41:01;;;;;;;;;;;;;;;13.39;51.85;100674.81;4469084;32;34282;-67
2022/11/26 12:43:47;;;;;;;;;;;;;;;12.78;53.24;100675.44;4476793;32;34604;-64
2022/11/26 12:46:18;;;;;;;;;;;;;;;12.91;53.68;100666.53;4481964;32;33279;-64
2022/11/26 12:48:52;;;;;;;;;;;;;;;13.30;52.25;100665.56;4465536;32;33953;-66
2022/11/26 12:51:26;;;;;;;;;;;;;;;12.99;53.84;100667.69;4476209;32;34992;-64
2022/11/26 12:54:00;;;;;;;;;;;;;;;13.03;53.36;100660.28;4481013;32;34259;-64
2022/11/26 12:56:31;;;;;;;;;;;;;;;12.83;53.46;100665.22;4468115;32;32342;-64
2022/11/26 12:59:04;;;;;;;;;;;;;;;12.72;53.97;100672.31;4468799;32;33326;-64